createdAt,value
2023-01-06T00:01:35.009Z,2.33
2023-01-06T00:04:03.993Z,1.10
2023-01-06T00:06:33.042Z,1.30
2023-01-06T00:09:03.531Z,1.40
2023-01-06T00:11:34.006Z,1.20
2023-01-06T00:14:03.288Z,1.10
2023-01-06T00:16:31.900Z,1.10
2023-01-06T00:19:02.401Z,1.30
2023-01-06T00:21:31.463Z,1.10
2023-01-06T00:24:00.139Z,1.10
2023-01-06T00:26:28.706Z,1.42
2023-01-06T00:28:59.016Z,1.50
2023-01-06T00:31:27.963Z,1.10
2023-01-06T00:33:58.064Z,1.30
2023-01-06T00:36:27.149Z,1.10
2023-01-06T00:38:55.825Z,1.10
2023-01-06T00:41:41.868Z,1.50
2023-01-06T00:44:11.840Z,1.10
2023-01-06T00:46:40.441Z,1.20
2023-01-06T00:49:09.090Z,1.20
2023-01-06T00:51:40.041Z,1.10
2023-01-06T00:54:10.197Z,1.13
2023-01-06T00:56:40.070Z,1.20
2023-01-06T00:59:13.044Z,1.58
2023-01-06T01:01:42.778Z,1.10
2023-01-06T01:04:12.347Z,1.10
2023-01-06T01:06:54.412Z,1.30
2023-01-06T01:09:26.293Z,1.73
2023-01-06T01:12:12.068Z,1.42
2023-01-06T01:14:44.983Z,1.17
2023-01-06T01:17:15.300Z,1.55
2023-01-06T01:19:43.929Z,1.20
2023-01-06T01:22:12.882Z,1.20
2023-01-06T01:24:41.636Z,1.10
2023-01-06T01:27:11.058Z,1.55
2023-01-06T01:29:39.689Z,1.65
2023-01-06T01:32:10.018Z,1.10
2023-01-06T01:34:38.777Z,1.35
2023-01-06T01:37:07.402Z,1.30
2023-01-06T01:39:36.081Z,1.30
2023-01-06T01:42:08.101Z,1.83
2023-01-06T01:45:18.829Z,1.63
2023-01-06T01:47:53.811Z,1.20
2023-01-06T01:50:31.360Z,1.20
2023-01-06T01:53:05.029Z,1.30
2023-01-06T01:55:35.580Z,1.40
2023-01-06T02:04:29.290Z,1.33
2023-01-06T02:06:59.828Z,1.13
2023-01-06T02:09:34.501Z,1.20
2023-01-06T02:12:03.666Z,1.15
2023-01-06T02:14:32.651Z,1.23
2023-01-06T02:17:14.163Z,1.15
2023-01-06T02:20:17.596Z,1.35
2023-01-06T02:23:16.703Z,1.30
2023-01-06T02:26:30.124Z,1.30
2023-01-06T02:29:31.565Z,1.40
2023-01-06T02:32:14.648Z,1.40
2023-01-06T02:34:54.309Z,1.30
2023-01-06T02:37:38.381Z,1.35
2023-01-06T02:40:22.661Z,1.38
2023-01-06T02:58:50.081Z,1.30
2023-01-06T03:01:24.206Z,1.40
2023-01-06T03:03:54.486Z,1.30
2023-01-06T03:06:31.001Z,1.20
2023-01-06T03:09:02.423Z,1.20
2023-01-06T03:11:44.169Z,1.20
2023-01-06T03:14:20.219Z,1.10
2023-01-06T03:16:49.568Z,1.20
2023-01-06T03:19:19.593Z,1.88
2023-01-06T03:21:50.941Z,1.38
2023-01-06T03:24:22.995Z,1.20
2023-01-06T03:26:54.008Z,1.30
2023-01-06T03:29:25.353Z,1.20
2023-01-06T03:32:02.828Z,1.30
2023-01-06T03:34:49.840Z,1.30
2023-01-06T03:37:27.735Z,1.30
2023-01-06T03:40:07.641Z,1.38
2023-01-06T03:42:58.157Z,1.40
2023-01-06T03:45:40.366Z,1.30
2023-01-06T03:48:16.429Z,1.77
2023-01-06T03:50:51.845Z,1.30
2023-01-06T03:53:30.329Z,1.63
2023-01-06T03:56:06.631Z,1.30
2023-01-06T03:58:38.939Z,1.33
2023-01-06T04:01:11.776Z,1.30
2023-01-06T04:03:40.750Z,1.85
2023-01-06T04:06:09.472Z,1.50
2023-01-06T04:08:39.435Z,1.50
2023-01-06T04:11:08.144Z,1.60
2023-01-06T04:13:36.504Z,1.30
2023-01-06T04:16:05.622Z,1.40
2023-01-06T04:18:48.076Z,1.50
2023-01-06T04:21:18.506Z,1.55
2023-01-06T04:23:47.261Z,1.40
2023-01-06T04:26:16.110Z,1.30
2023-01-06T04:28:51.351Z,1.33
2023-01-06T04:31:42.553Z,1.63
2023-01-06T04:34:12.591Z,1.63
2023-01-06T04:36:41.815Z,1.40
2023-01-06T04:39:10.552Z,1.50
2023-01-06T04:41:39.100Z,1.50
2023-01-06T04:44:07.773Z,1.40
2023-01-06T04:46:36.432Z,1.92
2023-01-06T04:49:05.018Z,1.40
2023-01-06T04:51:36.404Z,1.65
2023-01-06T04:54:05.421Z,1.50
2023-01-06T04:56:34.491Z,1.67
2023-01-06T04:59:03.135Z,1.50
2023-01-06T05:01:31.846Z,2.03
2023-01-06T05:04:00.551Z,1.40
2023-01-06T05:06:29.630Z,1.77
2023-01-06T05:08:59.616Z,1.65
2023-01-06T05:11:28.711Z,1.52
2023-01-06T05:13:57.302Z,1.40
2023-01-06T05:16:27.901Z,1.87
2023-01-06T05:18:57.278Z,1.58
2023-01-06T05:21:27.524Z,2.00
2023-01-06T05:23:57.098Z,1.30
2023-01-06T05:26:29.082Z,1.38
2023-01-06T05:28:57.721Z,1.98
2023-01-06T05:31:26.469Z,1.58
2023-01-06T05:33:55.148Z,1.40
2023-01-06T05:52:14.907Z,1.30
2023-01-06T05:54:43.490Z,2.50
2023-01-06T05:57:12.094Z,1.30
2023-01-06T05:59:40.721Z,1.50
2023-01-06T06:02:09.354Z,1.30
2023-01-06T06:04:38.024Z,1.63
2023-01-06T06:51:22.384Z,1.77
2023-01-06T06:53:51.304Z,2.65
2023-01-06T06:56:21.297Z,2.22
2023-01-06T06:58:50.033Z,1.77
2023-01-06T07:01:20.801Z,2.70
2023-01-06T07:03:50.064Z,2.75
2023-01-06T07:06:23.721Z,3.15
2023-01-06T07:08:52.928Z,2.22
2023-01-06T07:11:22.378Z,3.30
2023-01-06T07:13:50.970Z,1.95
2023-01-06T07:16:20.016Z,1.83
2023-01-06T07:18:49.009Z,1.67
2023-01-06T07:21:17.702Z,2.45
2023-01-06T07:26:53.478Z,1.50
2023-01-06T07:32:06.067Z,1.70
2023-01-06T07:34:48.932Z,1.93
2023-01-06T07:37:17.569Z,1.33
2023-01-06T07:39:48.285Z,1.52
2023-01-06T07:42:18.664Z,1.90
2023-01-06T07:44:47.458Z,1.88
2023-01-06T07:47:16.222Z,1.42
2023-01-06T07:49:44.876Z,1.67
2023-01-06T07:52:14.115Z,2.13
2023-01-06T07:54:43.071Z,1.50
2023-01-06T07:57:11.757Z,2.55
2023-01-06T07:59:42.865Z,3.20
2023-01-06T08:02:12.806Z,2.47
2023-01-06T08:04:41.628Z,4.28
2023-01-06T08:07:10.526Z,1.90
2023-01-06T08:09:39.422Z,2.42
2023-01-06T08:12:15.119Z,1.33
2023-01-06T08:14:45.250Z,2.43
2023-01-06T08:17:14.407Z,2.85
2023-01-06T08:19:43.072Z,2.72
2023-01-06T08:22:11.930Z,1.80
2023-01-06T08:24:40.581Z,2.78
2023-01-06T08:27:09.148Z,2.05
2023-01-06T08:29:37.751Z,2.05
2023-01-06T08:32:10.679Z,2.50
2023-01-06T08:34:39.759Z,2.22
2023-01-06T08:37:08.408Z,2.97
2023-01-06T08:39:37.043Z,1.70
2023-01-06T08:42:05.895Z,3.07
2023-01-06T08:44:34.601Z,1.50
2023-01-06T08:47:03.187Z,2.25
2023-01-06T08:49:33.283Z,2.35
2023-01-06T08:52:01.842Z,2.90
2023-01-06T08:54:30.672Z,1.48
2023-01-06T08:56:59.272Z,1.67
2023-01-06T08:59:27.877Z,3.33
2023-01-06T09:01:56.602Z,1.65
2023-01-06T09:04:25.288Z,1.73
2023-01-06T09:06:56.819Z,1.38
2023-01-06T09:09:26.055Z,1.75
2023-01-06T09:11:54.893Z,1.80
2023-01-06T09:14:24.803Z,1.42
2023-01-06T09:16:53.713Z,2.08
2023-01-06T09:19:22.324Z,1.75
2023-01-06T09:21:50.927Z,1.40
2023-01-06T09:24:20.944Z,1.92
2023-01-06T09:26:49.580Z,1.13
2023-01-06T09:29:18.267Z,2.45
2023-01-06T09:31:46.931Z,2.65
2023-01-06T10:02:46.427Z,1.60
2023-01-06T10:05:21.597Z,1.30
2023-01-06T10:07:57.751Z,1.13
2023-01-06T10:10:39.555Z,1.30
2023-01-06T10:13:31.481Z,2.28
2023-01-06T10:16:08.181Z,2.95
2023-01-06T10:18:50.024Z,2.25
2023-01-06T10:30:51.647Z,2.80
2023-01-06T10:35:58.079Z,2.58
2023-01-06T10:38:41.601Z,2.03
2023-01-06T10:41:19.645Z,3.35
2023-01-06T10:43:48.470Z,1.52
2023-01-06T10:46:18.234Z,2.15
2023-01-06T10:48:49.543Z,2.58
2023-01-06T10:51:36.668Z,2.13
2023-01-06T10:54:10.758Z,2.17
2023-01-06T10:56:42.521Z,2.42
2023-01-06T10:59:12.856Z,2.95
2023-01-06T11:01:52.159Z,2.40
2023-01-06T11:04:21.708Z,1.85
2023-01-06T11:06:55.553Z,2.17
2023-01-06T11:09:31.785Z,2.45
2023-01-06T11:12:03.447Z,2.65
2023-01-06T11:14:33.669Z,2.15
2023-01-06T11:17:03.845Z,3.63
2023-01-06T11:19:38.317Z,1.70
2023-01-06T11:22:35.351Z,2.38
2023-01-06T11:25:06.308Z,2.22
2023-01-06T11:27:34.869Z,1.77
2023-01-06T11:30:22.710Z,2.72
2023-01-06T11:32:51.376Z,1.55
2023-01-06T11:35:22.949Z,2.80
2023-01-06T11:37:59.864Z,1.83
2023-01-06T11:40:32.265Z,2.45
2023-01-06T11:43:07.575Z,1.38
2023-01-06T11:45:38.709Z,2.63
2023-01-06T11:48:15.745Z,3.33
2023-01-06T11:50:52.767Z,1.92
2023-01-06T11:53:24.635Z,3.40
2023-01-06T11:55:58.971Z,2.05
2023-01-06T11:58:54.836Z,1.63
2023-01-06T12:01:30.823Z,2.38
2023-01-06T12:04:08.901Z,2.72
2023-01-06T12:06:40.545Z,3.13
2023-01-06T12:09:17.709Z,1.73
2023-01-06T12:11:50.320Z,2.28
2023-01-06T12:14:28.514Z,2.90
2023-01-06T12:17:08.058Z,2.10
2023-01-06T12:19:49.156Z,2.20
2023-01-06T12:22:24.084Z,1.73
2023-01-06T12:25:04.865Z,3.00
2023-01-06T12:27:39.154Z,1.58
2023-01-06T12:30:29.979Z,3.35
2023-01-06T12:33:04.941Z,2.08
2023-01-06T12:35:37.257Z,4.28
2023-01-06T12:38:15.804Z,4.13
2023-01-06T12:40:56.624Z,1.85
2023-01-06T12:43:34.656Z,3.80
2023-01-06T12:46:11.005Z,2.88
2023-01-06T12:48:45.160Z,2.40
2023-01-06T12:51:18.396Z,2.35
2023-01-06T12:53:51.607Z,4.40
2023-01-06T12:56:42.104Z,1.73
2023-01-06T12:59:19.633Z,1.35
2023-01-06T13:01:53.476Z,1.95
2023-01-06T13:04:57.479Z,3.22
2023-01-06T13:07:37.766Z,2.88
2023-01-06T13:10:19.298Z,2.83
2023-01-06T13:13:35.580Z,3.05
2023-01-06T13:16:16.783Z,3.58
2023-01-06T13:18:52.803Z,2.70
2023-01-06T13:21:25.537Z,5.07
2023-01-06T13:24:22.147Z,2.10
2023-01-06T13:27:09.193Z,2.03
2023-01-06T13:29:54.190Z,2.80
2023-01-06T13:32:42.852Z,2.40
2023-01-06T13:35:37.217Z,2.10
2023-01-06T13:38:29.269Z,2.10
2023-01-06T13:41:00.111Z,1.95
2023-01-06T13:43:30.984Z,2.75
2023-01-06T13:46:04.699Z,2.90
2023-01-06T13:48:45.181Z,1.25
2023-01-06T13:51:17.268Z,2.65
2023-01-06T13:53:47.282Z,2.40
2023-01-06T13:56:30.759Z,1.63
2023-01-06T13:59:23.802Z,1.88
2023-01-06T14:01:59.657Z,3.17
2023-01-06T14:04:47.455Z,4.32
2023-01-06T14:07:31.114Z,2.25
2023-01-06T14:10:01.214Z,3.83
2023-01-06T14:12:36.238Z,3.85
2023-01-06T14:15:07.744Z,3.65
2023-01-06T14:17:43.095Z,2.08
2023-01-06T14:20:29.943Z,3.28
2023-01-06T14:23:04.720Z,2.17
2023-01-06T14:25:38.170Z,2.40
2023-01-06T14:28:09.703Z,2.38
2023-01-06T14:30:38.408Z,1.80
2023-01-06T14:33:31.620Z,2.08
2023-01-06T14:36:08.051Z,3.88
2023-01-06T14:38:44.973Z,4.18
2023-01-06T14:41:23.874Z,1.95
2023-01-06T14:43:58.357Z,2.47
2023-01-06T14:46:31.242Z,3.40
2023-01-06T14:49:04.729Z,2.70
2023-01-06T14:51:35.438Z,4.18
2023-01-06T14:54:09.052Z,2.80
2023-01-06T14:56:38.360Z,1.95
2023-01-06T15:05:28.455Z,2.25
2023-01-06T15:08:03.320Z,2.47
2023-01-06T15:10:37.899Z,4.60
2023-01-06T15:13:22.581Z,3.35
2023-01-06T15:15:55.547Z,4.25
2023-01-06T15:18:26.682Z,2.67
2023-01-06T15:21:05.670Z,3.03
2023-01-06T15:23:39.167Z,2.15
2023-01-06T15:26:07.837Z,3.70
2023-01-06T15:28:38.528Z,3.58
2023-01-06T15:31:07.192Z,3.78
2023-01-06T15:33:49.404Z,2.72
2023-01-06T15:36:23.131Z,3.55
2023-01-06T15:38:53.138Z,4.47
2023-01-06T15:41:39.646Z,3.53
2023-01-06T15:44:25.513Z,5.38
2023-01-06T15:46:58.091Z,5.97
2023-01-06T15:49:30.024Z,5.93
2023-01-06T15:52:04.923Z,6.40
2023-01-06T15:54:36.779Z,4.22
2023-01-06T15:57:16.476Z,3.22
2023-01-06T15:59:55.587Z,3.38
2023-01-06T16:02:27.666Z,2.20
2023-01-06T16:04:59.266Z,2.22
2023-01-06T16:07:39.970Z,4.32
2023-01-06T16:10:32.055Z,2.42
2023-01-06T16:13:28.735Z,3.42
2023-01-06T16:16:03.103Z,3.65
2023-01-06T16:18:34.148Z,2.75
2023-01-06T16:21:16.684Z,2.90
2023-01-06T16:23:51.529Z,2.65
2023-01-06T16:26:22.615Z,2.22
2023-01-06T16:28:53.100Z,1.65
2023-01-06T16:31:40.402Z,4.97
2023-01-06T16:34:25.473Z,2.72
2023-01-06T16:36:56.792Z,3.45
2023-01-06T16:39:27.272Z,2.05
2023-01-06T16:42:39.636Z,4.78
2023-01-06T16:45:22.946Z,2.85
2023-01-06T16:47:51.825Z,1.90
2023-01-06T16:50:23.601Z,2.63
2023-01-06T16:53:04.765Z,4.03
2023-01-06T16:55:34.900Z,2.67
2023-01-06T16:58:12.993Z,4.03
2023-01-06T17:00:44.107Z,4.28
2023-01-06T17:03:15.480Z,3.50
2023-01-06T17:05:44.275Z,4.45
2023-01-06T17:08:15.890Z,4.53
2023-01-06T17:10:46.534Z,4.35
2023-01-06T17:13:35.891Z,3.03
2023-01-06T17:16:16.749Z,4.00
2023-01-06T17:18:54.446Z,2.50
2023-01-06T17:24:15.679Z,4.13
2023-01-06T17:26:50.589Z,2.95
2023-01-06T17:29:21.967Z,4.35
2023-01-06T17:31:53.168Z,7.45
2023-01-06T17:34:25.112Z,5.28
2023-01-06T17:36:56.918Z,3.35
2023-01-06T17:39:27.308Z,4.57
2023-01-06T17:42:04.424Z,6.45
2023-01-06T17:44:38.251Z,3.25
2023-01-06T17:47:13.188Z,5.25
2023-01-06T17:49:42.054Z,4.75
2023-01-06T17:52:18.208Z,3.15
2023-01-06T17:55:14.890Z,3.53
2023-01-06T17:57:47.194Z,3.75
2023-01-06T18:00:25.603Z,3.80
2023-01-06T18:02:59.514Z,4.60
2023-01-06T18:06:04.261Z,6.32
2023-01-06T18:08:34.949Z,5.13
2023-01-06T18:11:29.319Z,3.15
2023-01-06T18:14:15.547Z,7.05
2023-01-06T18:16:47.243Z,4.20
2023-01-06T18:19:28.554Z,6.05
2023-01-06T18:21:57.286Z,5.85
2023-01-06T18:24:31.039Z,5.65
2023-01-06T18:27:00.859Z,4.63
2023-01-06T18:29:36.789Z,6.30
2023-01-06T18:32:24.932Z,3.45
2023-01-06T18:34:54.632Z,3.03
2023-01-06T18:37:25.830Z,3.97
2023-01-06T18:39:59.057Z,4.00
2023-01-06T18:42:30.438Z,2.92
2023-01-06T18:45:18.467Z,2.80
2023-01-06T18:47:51.900Z,1.90
2023-01-06T18:50:37.191Z,1.77
2023-01-06T18:53:19.618Z,1.92
2023-01-06T18:55:51.221Z,5.38
2023-01-06T18:58:46.451Z,2.72
2023-01-06T19:01:20.445Z,2.38
2023-01-06T19:03:59.046Z,4.05
2023-01-06T19:06:38.068Z,3.00
2023-01-06T19:09:23.844Z,3.65
2023-01-06T19:12:03.653Z,3.50
2023-01-06T19:14:36.758Z,2.03
2023-01-06T19:17:21.036Z,3.22
2023-01-06T19:19:51.697Z,3.13
2023-01-06T19:22:23.749Z,1.73
2023-01-06T19:25:01.247Z,3.05
2023-01-06T19:27:37.840Z,3.85
2023-01-06T19:30:40.078Z,3.45
2023-01-06T19:33:39.421Z,2.40
2023-01-06T19:36:32.618Z,4.22
2023-01-06T19:39:09.326Z,4.05
2023-01-06T19:41:38.126Z,2.80
2023-01-06T19:44:13.064Z,4.03
2023-01-06T19:46:43.538Z,2.42
2023-01-06T19:49:19.334Z,2.33
2023-01-06T19:51:50.228Z,3.63
2023-01-06T19:54:26.192Z,2.60
2023-01-06T19:56:56.037Z,2.28
2023-01-06T19:59:27.295Z,1.98
2023-01-06T20:02:00.837Z,1.20
2023-01-06T20:04:30.915Z,2.78
2023-01-06T20:06:59.514Z,1.70
2023-01-06T20:09:28.172Z,1.75
2023-01-06T20:11:56.878Z,2.78
2023-01-06T20:14:25.491Z,2.78
2023-01-06T20:16:54.191Z,2.05
2023-01-06T20:19:22.969Z,2.55
2023-01-06T20:21:52.976Z,3.50
2023-01-06T20:24:21.605Z,4.45
2023-01-06T20:26:50.322Z,2.28
2023-01-06T20:29:19.007Z,3.63
2023-01-06T20:31:48.310Z,2.55
2023-01-06T20:34:16.967Z,3.70
2023-01-06T20:36:45.585Z,2.85
2023-01-06T20:39:16.167Z,5.45
2023-01-06T20:41:44.863Z,2.95
2023-01-06T20:44:14.082Z,2.75
2023-01-06T20:46:42.720Z,2.53
2023-01-06T20:49:13.179Z,2.78
2023-01-06T20:51:41.811Z,5.72
2023-01-06T20:54:10.397Z,3.70
2023-01-06T20:56:40.363Z,2.25
2023-01-06T20:59:08.976Z,3.47
2023-01-06T21:01:37.609Z,2.88
2023-01-06T21:04:06.390Z,4.40
2023-01-06T21:06:34.950Z,5.57
2023-01-06T21:09:03.482Z,2.92
2023-01-06T21:11:32.100Z,2.80
2023-01-06T21:14:02.078Z,1.67
2023-01-06T21:16:30.701Z,3.08
2023-01-06T21:18:59.301Z,2.33
2023-01-06T21:21:27.861Z,2.92
2023-01-06T21:23:56.528Z,2.75
2023-01-06T21:26:25.076Z,2.90
2023-01-06T21:28:53.636Z,2.60
2023-01-06T21:31:23.799Z,3.33
2023-01-06T21:33:52.375Z,1.75
2023-01-06T21:36:20.960Z,3.00
2023-01-06T21:38:49.597Z,1.42
2023-01-06T21:41:35.347Z,1.80
2023-01-06T21:44:03.916Z,1.55
2023-01-06T21:46:33.995Z,2.22
2023-01-06T21:49:02.618Z,2.88
2023-01-06T21:51:31.259Z,1.70
2023-01-06T21:54:00.018Z,1.23
2023-01-06T21:56:28.857Z,1.00
2023-01-06T21:58:58.562Z,2.78
2023-01-06T22:01:27.737Z,1.27
2023-01-06T22:04:01.416Z,1.42
2023-01-06T22:06:30.356Z,1.52
2023-01-06T22:09:03.181Z,1.02
2023-01-06T22:11:33.697Z,1.58
2023-01-06T22:14:02.534Z,0.90
2023-01-06T22:17:01.285Z,2.17
2023-01-06T22:19:36.073Z,1.30
2023-01-06T22:22:04.977Z,1.17
2023-01-06T22:24:35.610Z,1.33
2023-01-06T22:27:04.285Z,1.63
2023-01-06T22:29:32.958Z,0.77
2023-01-06T22:32:14.670Z,2.53
2023-01-06T22:34:44.671Z,1.10
2023-01-06T22:37:13.564Z,1.45
2023-01-06T22:39:44.090Z,1.80
2023-01-06T22:42:30.035Z,1.17
2023-01-06T22:45:26.424Z,1.55
2023-01-06T22:47:54.994Z,1.25
2023-01-06T22:50:25.043Z,1.65
2023-01-06T22:52:53.608Z,1.30
2023-01-06T22:55:22.198Z,1.98
2023-01-06T22:57:50.805Z,2.25
2023-01-06T23:00:20.590Z,1.30
2023-01-06T23:02:49.252Z,2.38
2023-01-06T23:05:18.240Z,1.27
2023-01-06T23:07:48.365Z,1.83
2023-01-06T23:10:16.995Z,2.72
2023-01-06T23:12:45.519Z,1.55
2023-01-06T23:15:14.059Z,1.92
2023-01-06T23:17:42.643Z,2.47
2023-01-06T23:20:12.249Z,1.60
2023-01-06T23:22:40.889Z,2.35
2023-01-06T23:25:11.305Z,1.77
2023-01-06T23:27:41.280Z,1.23
2023-01-06T23:30:10.865Z,1.90
2023-01-06T23:42:04.429Z,3.10
2023-01-06T23:44:32.957Z,1.35
2023-01-06T23:47:01.551Z,1.60
2023-01-06T23:49:30.133Z,2.65
2023-01-06T23:51:58.719Z,1.55
2023-01-06T23:54:27.268Z,1.75
2023-01-06T23:56:55.840Z,2.92
2023-01-06T23:59:25.941Z,3.40
